sensor_id;sensor_type;location;lat;lon;timestamp;P1;P2;P0
72918;PMS7003;68407;55.694;26.994;2024-03-02T00:05:06;4;4;3
72918;PMS7003;68407;55.694;26.994;2024-03-02T00:10:08;5;4.4;3.2
72918;PMS7003;68407;55.694;26.994;2024-03-02T00:14:34;5;4.4;3.2
72918;PMS7003;68407;55.694;26.994;2024-03-02T00:19:46;4.8;4.6;3.4
72918;PMS7003;68407;55.694;26.994;2024-03-02T00:25:07;5;4.2;3.8
72918;PMS7003;68407;55.694;26.994;2024-03-02T00:29:59;5;4.2;3.8
72918;PMS7003;68407;55.694;26.994;2024-03-02T00:34:48;4.4;4.4;3.4
72918;PMS7003;68407;55.694;26.994;2024-03-02T00:39:40;5.2;4.2;3.8
72918;PMS7003;68407;55.694;26.994;2024-03-02T00:44:38;5.4;4;3
72918;PMS7003;68407;55.694;26.994;2024-03-02T00:50:07;5.2;3.6;2.8
72918;PMS7003;68407;55.694;26.994;2024-03-02T00:54:47;5.2;3.6;2.8
72918;PMS7003;68407;55.694;26.994;2024-03-02T01:00:07;5.6;4.4;3.6
72918;PMS7003;68407;55.694;26.994;2024-03-02T01:04:22;5.6;4.4;3.6
72918;PMS7003;68407;55.694;26.994;2024-03-02T01:09:54;4.6;3.8;3
72918;PMS7003;68407;55.694;26.994;2024-03-02T01:14:22;5.3;5;3.8
72918;PMS7003;68407;55.694;26.994;2024-03-02T01:19:28;5.8;3.8;3.6
72918;PMS7003;68407;55.694;26.994;2024-03-02T01:24:28;4.4;3.8;3.2
72918;PMS7003;68407;55.694;26.994;2024-03-02T01:29:34;5;4.2;3.6
72918;PMS7003;68407;55.694;26.994;2024-03-02T01:34:22;5.2;5;3.8
72918;PMS7003;68407;55.694;26.994;2024-03-02T01:39:34;5.4;4;3.4
72918;PMS7003;68407;55.694;26.994;2024-03-02T01:45:07;5.6;5.2;4.4
72918;PMS7003;68407;55.694;26.994;2024-03-02T01:49:22;5.6;5.2;4.4
72918;PMS7003;68407;55.694;26.994;2024-03-02T01:55:07;6;4.8;3.8
72918;PMS7003;68407;55.694;26.994;2024-03-02T01:59:54;6;4.8;3.8
72918;PMS7003;68407;55.694;26.994;2024-03-02T02:04:56;5.6;5.2;3.8
72918;PMS7003;68407;55.694;26.994;2024-03-02T02:09:38;5.8;4.6;3.6
72918;PMS7003;68407;55.694;26.994;2024-03-02T02:15:03;4.5;4;3
72918;PMS7003;68407;55.694;26.994;2024-03-02T02:19:58;4.8;4.2;3.6
72918;PMS7003;68407;55.694;26.994;2024-03-02T02:24:39;5.2;4.8;4
72918;PMS7003;68407;55.694;26.994;2024-03-02T02:29:22;5;4;3.2
72918;PMS7003;68407;55.694;26.994;2024-03-02T02:35:06;4.4;4;3.8
72918;PMS7003;68407;55.694;26.994;2024-03-02T02:39:30;4.4;4;3.8
72918;PMS7003;68407;55.694;26.994;2024-03-02T02:44:54;5.6;4.4;3.8
72918;PMS7003;68407;55.694;26.994;2024-03-02T02:49:23;4.8;3.8;2.8
72918;PMS7003;68407;55.694;26.994;2024-03-02T02:54:28;4.4;3.4;2.6
72918;PMS7003;68407;55.694;26.994;2024-03-02T02:59:22;5.4;3.8;3.4
72918;PMS7003;68407;55.694;26.994;2024-03-02T03:04:22;6.4;4.4;3.6
72918;PMS7003;68407;55.694;26.994;2024-03-02T03:09:28;4.8;3.8;2.8
72918;PMS7003;68407;55.694;26.994;2024-03-02T03:14:31;5;4.5;3.5
72918;PMS7003;68407;55.694;26.994;2024-03-02T03:20:07;4.4;3.8;3
72918;PMS7003;68407;55.694;26.994;2024-03-02T03:24:50;4.4;3.8;3
72918;PMS7003;68407;55.694;26.994;2024-03-02T03:30:07;4.2;3.8;3
72918;PMS7003;68407;55.694;26.994;2024-03-02T03:34:54;4.2;3.8;3
72918;PMS7003;68407;55.694;26.994;2024-03-02T03:39:58;8.4;6.2;5.2
72918;PMS7003;68407;55.694;26.994;2024-03-02T03:44:32;7;6.2;4.6
72918;PMS7003;68407;55.694;26.994;2024-03-02T03:49:34;9;8;5
72918;PMS7003;68407;55.694;26.994;2024-03-02T03:55:08;9;7.8;6
72918;PMS7003;68407;55.694;26.994;2024-03-02T04:00:07;9.4;6.8;5
72918;PMS7003;68407;55.694;26.994;2024-03-02T04:04:46;9.4;6.8;5
72918;PMS7003;68407;55.694;26.994;2024-03-02T04:10:07;11;8.8;6.5
72918;PMS7003;68407;55.694;26.994;2024-03-02T04:14:58;11;8.8;6.5
72918;PMS7003;68407;55.694;26.994;2024-03-02T04:19:54;9.8;8.4;6.4
72918;PMS7003;68407;55.694;26.994;2024-03-02T04:25:07;12.2;10.4;7.8
72918;PMS7003;68407;55.694;26.994;2024-03-02T04:29:28;12.2;10.4;7.8
72918;PMS7003;68407;55.694;26.994;2024-03-02T04:34:58;13.4;10.6;8
72918;PMS7003;68407;55.694;26.994;2024-03-02T04:39:40;14;12.6;8.8
72918;PMS7003;68407;55.694;26.994;2024-03-02T04:44:22;15.6;13.2;8.6
72918;PMS7003;68407;55.694;26.994;2024-03-02T04:49:46;15.4;13.2;9
72918;PMS7003;68407;55.694;26.994;2024-03-02T04:54:48;14.8;12.6;8.6
72918;PMS7003;68407;55.694;26.994;2024-03-02T04:59:22;17.2;14.4;10.4
72918;PMS7003;68407;55.694;26.994;2024-03-02T05:05:05;14;11.8;8.4
72918;PMS7003;68407;55.694;26.994;2024-03-02T05:09:54;14;11.8;8.4
72918;PMS7003;68407;55.694;26.994;2024-03-02T05:14:22;13.8;12.8;8.8
72918;PMS7003;68407;55.694;26.994;2024-03-02T05:19:22;13;10.6;8.2
72918;PMS7003;68407;55.694;26.994;2024-03-02T05:24:46;11.4;9.8;7.6
72918;PMS7003;68407;55.694;26.994;2024-03-02T05:29:59;12.8;10.2;7.2
72918;PMS7003;68407;55.694;26.994;2024-03-02T05:34:39;10.6;9.2;6.6
72918;PMS7003;68407;55.694;26.994;2024-03-02T05:39:59;10.8;9.4;7.8
72918;PMS7003;68407;55.694;26.994;2024-03-02T05:44:55;11.4;9.2;6.6
72918;PMS7003;68407;55.694;26.994;2024-03-02T05:50:05;14.6;11.4;8.4
72918;PMS7003;68407;55.694;26.994;2024-03-02T05:54:45;14.6;11.4;8.4
72918;PMS7003;68407;55.694;26.994;2024-03-02T05:59:59;17.6;15;9.8
72918;PMS7003;68407;55.694;26.994;2024-03-02T06:04:49;16;13.8;10
72918;PMS7003;68407;55.694;26.994;2024-03-02T06:10:01;16.2;15;9.8
72918;PMS7003;68407;55.694;26.994;2024-03-02T06:15:00;18;16.4;10.4
72918;PMS7003;68407;55.694;26.994;2024-03-02T06:19:47;19.5;16.5;10.5
72918;PMS7003;68407;55.694;26.994;2024-03-02T06:24:23;20.2;16.8;11.2
72918;PMS7003;68407;55.694;26.994;2024-03-02T06:29:32;20.4;18;11.4
72918;PMS7003;68407;55.694;26.994;2024-03-02T06:34:51;19.4;16.6;11.8
72918;PMS7003;68407;55.694;26.994;2024-03-02T06:40:11;20;16.6;10.8
72918;PMS7003;68407;55.694;26.994;2024-03-02T06:45:09;18.8;17;11.6
72918;PMS7003;68407;55.694;26.994;2024-03-02T06:49:32;18.8;17;11.6
72918;PMS7003;68407;55.694;26.994;2024-03-02T06:54:53;17.8;15.2;11
72918;PMS7003;68407;55.694;26.994;2024-03-02T06:59:41;20.8;16.2;11.6
72918;PMS7003;68407;55.694;26.994;2024-03-02T07:05:01;18.2;15;10.8
72918;PMS7003;68407;55.694;26.994;2024-03-02T07:09:23;16.8;14;9
72918;PMS7003;68407;55.694;26.994;2024-03-02T07:15:01;15.8;13.8;10
72918;PMS7003;68407;55.694;26.994;2024-03-02T07:19:57;19.3;15;10
72918;PMS7003;68407;55.694;26.994;2024-03-02T07:25:09;14.6;13.2;9
72918;PMS7003;68407;55.694;26.994;2024-03-02T07:29:49;14.6;13.2;9
72918;PMS7003;68407;55.694;26.994;2024-03-02T07:35:01;13.8;12.2;9.2
72918;PMS7003;68407;55.694;26.994;2024-03-02T07:39:49;14.6;11.6;8.8
72918;PMS7003;68407;55.694;26.994;2024-03-02T07:44:21;12;11.2;8.8
72918;PMS7003;68407;55.694;26.994;2024-03-02T07:49:23;11.4;10.6;7.8
72918;PMS7003;68407;55.694;26.994;2024-03-02T07:54:31;12.2;9.8;7
72918;PMS7003;68407;55.694;26.994;2024-03-02T07:59:23;10.2;8.8;7
72918;PMS7003;68407;55.694;26.994;2024-03-02T08:04:31;9.4;8.4;6.4
72918;PMS7003;68407;55.694;26.994;2024-03-02T08:09:57;10.6;8.6;7
72918;PMS7003;68407;55.694;26.994;2024-03-02T08:15:09;9.8;8.3;6.8
72918;PMS7003;68407;55.694;26.994;2024-03-02T08:20:09;10.2;8;6.6
72918;PMS7003;68407;55.694;26.994;2024-03-02T08:24:37;10.2;8;6.6
72918;PMS7003;68407;55.694;26.994;2024-03-02T08:29:31;11.4;9.6;7.6
72918;PMS7003;68407;55.694;26.994;2024-03-02T08:35:09;9.8;9;7.2
72918;PMS7003;68407;55.694;26.994;2024-03-02T08:39:59;9.8;9;7.2
72918;PMS7003;68407;55.694;26.994;2024-03-02T08:44:33;10.2;9;7.2
72918;PMS7003;68407;55.694;26.994;2024-03-02T08:49:49;15.8;13;9.2
72918;PMS7003;68407;55.694;26.994;2024-03-02T08:54:23;15.8;13;9.4
72918;PMS7003;68407;55.694;26.994;2024-03-02T08:59:49;15;13.8;10.6
72918;PMS7003;68407;55.694;26.994;2024-03-02T09:04:23;14.4;13.4;9.6
72918;PMS7003;68407;55.694;26.994;2024-03-02T09:10:02;16.6;14.2;10
72918;PMS7003;68407;55.694;26.994;2024-03-02T09:15:09;17.5;14.5;10.3
72918;PMS7003;68407;55.694;26.994;2024-03-02T09:19:57;17.5;14.5;10.3
72918;PMS7003;68407;55.694;26.994;2024-03-02T09:24:53;17.4;13.4;9.8
72918;PMS7003;68407;55.694;26.994;2024-03-02T09:29:23;17.4;14.6;10.6
72918;PMS7003;68407;55.694;26.994;2024-03-02T09:34:29;18.4;15.2;10.6
72918;PMS7003;68407;55.694;26.994;2024-03-02T09:39:37;19;16;11.4
72918;PMS7003;68407;55.694;26.994;2024-03-02T09:44:23;18;14.6;10.2
72918;PMS7003;68407;55.694;26.994;2024-03-02T09:49:49;18.6;15.4;10
72918;PMS7003;68407;55.694;26.994;2024-03-02T09:55:09;20.6;17.8;12.6
72918;PMS7003;68407;55.694;26.994;2024-03-02T09:59:43;20.6;17.8;12.6
72918;PMS7003;68407;55.694;26.994;2024-03-02T10:05:09;20.4;16.8;12
72918;PMS7003;68407;55.694;26.994;2024-03-02T10:09:51;20.4;16.8;12
72918;PMS7003;68407;55.694;26.994;2024-03-02T10:15:02;21.4;18.6;12.4
72918;PMS7003;68407;55.694;26.994;2024-03-02T10:19:39;21.3;17.5;12.3
72918;PMS7003;68407;55.694;26.994;2024-03-02T10:24:49;21.8;19;12.6
72918;PMS7003;68407;55.694;26.994;2024-03-02T10:30:10;22.6;18.6;13
72918;PMS7003;68407;55.694;26.994;2024-03-02T10:35:09;21.4;18;12.8
72918;PMS7003;68407;55.694;26.994;2024-03-02T10:39:23;21.4;18;12.8
72918;PMS7003;68407;55.694;26.994;2024-03-02T10:44:51;22.2;19.2;13.6
72918;PMS7003;68407;55.694;26.994;2024-03-02T10:50:07;20.8;18.6;12.8
72918;PMS7003;68407;55.694;26.994;2024-03-02T10:55:09;21.2;19;13
72918;PMS7003;68407;55.694;26.994;2024-03-02T11:00:11;21.8;17.4;12
72918;PMS7003;68407;55.694;26.994;2024-03-02T11:04:24;21.8;17.4;12
72918;PMS7003;68407;55.694;26.994;2024-03-02T11:09:24;23;19;12.6
72918;PMS7003;68407;55.694;26.994;2024-03-02T11:14:23;21.8;18.8;14
72918;PMS7003;68407;55.694;26.994;2024-03-02T11:19:23;20.8;17.8;11.8
72918;PMS7003;68407;55.694;26.994;2024-03-02T11:24:37;20.3;18;12.3
72918;PMS7003;68407;55.694;26.994;2024-03-02T11:30:09;22.6;18;12.8
72918;PMS7003;68407;55.694;26.994;2024-03-02T11:34:29;22.6;18;12.8
72918;PMS7003;68407;55.694;26.994;2024-03-02T11:40:07;19;15.4;11
72918;PMS7003;68407;55.694;26.994;2024-03-02T11:44:43;19;15.4;11
72918;PMS7003;68407;55.694;26.994;2024-03-02T11:49:59;19;17.4;11.6
72918;PMS7003;68407;55.694;26.994;2024-03-02T17:54:25;20;16.3;11.3
72918;PMS7003;68407;55.694;26.994;2024-03-02T17:59:39;21.4;18;12.4
72918;PMS7003;68407;55.694;26.994;2024-03-02T18:05:13;24;17.3;11.8
72918;PMS7003;68407;55.694;26.994;2024-03-02T18:09:25;24;17.3;11.8
72918;PMS7003;68407;55.694;26.994;2024-03-02T18:15:11;19.2;16.2;11.4
72918;PMS7003;68407;55.694;26.994;2024-03-02T18:19:59;19.2;16.2;11.4
72918;PMS7003;68407;55.694;26.994;2024-03-02T18:25:01;20.4;16.4;10.6
72918;PMS7003;68407;55.694;26.994;2024-03-02T18:29:41;20.8;17;11.8
72918;PMS7003;68407;55.694;26.994;2024-03-02T18:34:43;19.6;15.6;11.4
72918;PMS7003;68407;55.694;26.994;2024-03-02T18:40:12;17;14.2;10
72918;PMS7003;68407;55.694;26.994;2024-03-02T18:45:11;17.6;14.4;10
72918;PMS7003;68407;55.694;26.994;2024-03-02T18:49:43;17.6;14.4;10
72918;PMS7003;68407;55.694;26.994;2024-03-02T18:55:11;16.2;13.2;9.4
72918;PMS7003;68407;55.694;26.994;2024-03-02T18:59:51;16.2;13.2;9.4
72918;PMS7003;68407;55.694;26.994;2024-03-02T19:04:57;19.2;15.6;11
72918;PMS7003;68407;55.694;26.994;2024-03-02T19:10:11;17.2;14.6;11.2
72918;PMS7003;68407;55.694;26.994;2024-03-02T19:14:31;17.2;14.6;11.2
72918;PMS7003;68407;55.694;26.994;2024-03-02T19:19:25;16.8;15.6;11.2
72918;PMS7003;68407;55.694;26.994;2024-03-02T19:24:34;15.8;14.2;10.6
72918;PMS7003;68407;55.694;26.994;2024-03-02T19:29:25;18.4;15.6;11.2
72918;PMS7003;68407;55.694;26.994;2024-03-02T19:34:31;20.4;16;12.4
72918;PMS7003;68407;55.694;26.994;2024-03-02T19:39:41;16.2;13.6;10.6
72918;PMS7003;68407;55.694;26.994;2024-03-02T19:44:25;18.8;14.8;10.6
72918;PMS7003;68407;55.694;26.994;2024-03-02T19:50:13;19;15.8;12
72918;PMS7003;68407;55.694;26.994;2024-03-02T19:55:01;19;15.8;12
72918;PMS7003;68407;55.694;26.994;2024-03-02T19:59:25;20.2;17.2;12.2
72918;PMS7003;68407;55.694;26.994;2024-03-02T20:04:26;20.4;17.8;12.4
72918;PMS7003;68407;55.694;26.994;2024-03-02T20:09:53;20.8;17.5;12.5
72918;PMS7003;68407;55.694;26.994;2024-03-02T20:15:04;24.8;20.2;14
72918;PMS7003;68407;55.694;26.994;2024-03-02T20:19:25;24.8;20.2;14
72918;PMS7003;68407;55.694;26.994;2024-03-02T20:25:03;24.6;20.8;13.4
72918;PMS7003;68407;55.694;26.994;2024-03-02T20:29:59;24.6;20.8;13.4
72918;PMS7003;68407;55.694;26.994;2024-03-02T20:35:13;26;21.6;14.8
72918;PMS7003;68407;55.694;26.994;2024-03-02T20:39:43;26;21.6;14.8
72918;PMS7003;68407;55.694;26.994;2024-03-02T20:44:45;23.2;19.6;14
72918;PMS7003;68407;55.694;26.994;2024-03-02T20:49:31;22.4;19.4;13.8
72918;PMS7003;68407;55.694;26.994;2024-03-02T20:54:25;25.6;21;14.6
72918;PMS7003;68407;55.694;26.994;2024-03-02T20:59:25;24.8;21.6;14.6
72918;PMS7003;68407;55.694;26.994;2024-03-02T21:04:25;21.6;19.2;13.4
72918;PMS7003;68407;55.694;26.994;2024-03-02T21:09:44;23.5;19.5;13.3
72918;PMS7003;68407;55.694;26.994;2024-03-02T21:14:25;22.6;20.2;13.2
72918;PMS7003;68407;55.694;26.994;2024-03-02T21:19:59;25.8;20.8;14.8
72918;PMS7003;68407;55.694;26.994;2024-03-02T21:25:13;25.6;20.6;14.4
72918;PMS7003;68407;55.694;26.994;2024-03-02T21:30:13;23.2;20.8;14.4
72918;PMS7003;68407;55.694;26.994;2024-03-02T21:34:59;23.2;20.8;14.4
72918;PMS7003;68407;55.694;26.994;2024-03-02T21:39:53;25.6;21.2;14.2
72918;PMS7003;68407;55.694;26.994;2024-03-02T21:44:53;24.8;20.4;14
72918;PMS7003;68407;55.694;26.994;2024-03-02T21:50:03;23.4;20.6;14
72918;PMS7003;68407;55.694;26.994;2024-03-02T21:54:43;23.4;20.6;14
72918;PMS7003;68407;55.694;26.994;2024-03-02T21:59:53;26;20.8;14.4
72918;PMS7003;68407;55.694;26.994;2024-03-02T22:04:45;27.4;22;14.2
72918;PMS7003;68407;55.694;26.994;2024-03-02T22:10:13;25.6;21.4;14.4
72918;PMS7003;68407;55.694;26.994;2024-03-02T22:14:25;25.6;21.4;14.4
72918;PMS7003;68407;55.694;26.994;2024-03-02T22:19:55;29.2;23.8;15.4
72918;PMS7003;68407;55.694;26.994;2024-03-02T22:24:25;26.2;23.6;16.6
72918;PMS7003;68407;55.694;26.994;2024-03-02T22:29:59;28;24.2;16.8
72918;PMS7003;68407;55.694;26.994;2024-03-02T22:34:31;29.2;24;16.6
72918;PMS7003;68407;55.694;26.994;2024-03-02T22:39:25;27;22.2;16
72918;PMS7003;68407;55.694;26.994;2024-03-02T22:44:31;25;23.2;16.2
72918;PMS7003;68407;55.694;26.994;2024-03-02T22:49:31;28;22.4;16
72918;PMS7003;68407;55.694;26.994;2024-03-02T22:54:43;26;22.6;15
72918;PMS7003;68407;55.694;26.994;2024-03-02T22:59:39;29.2;24;16
72918;PMS7003;68407;55.694;26.994;2024-03-02T23:05:11;28.2;23.2;16.6
72918;PMS7003;68407;55.694;26.994;2024-03-02T23:09:31;28.2;23.2;16.6
72918;PMS7003;68407;55.694;26.994;2024-03-02T23:15:11;27;22.4;14.4
72918;PMS7003;68407;55.694;26.994;2024-03-02T23:19:57;27;22.4;14.4
72918;PMS7003;68407;55.694;26.994;2024-03-02T23:25:03;25.8;21.6;15.2
72918;PMS7003;68407;55.694;26.994;2024-03-02T23:29:45;25.8;21.6;15.2
72918;PMS7003;68407;55.694;26.994;2024-03-02T23:34:51;28;23.6;15.6
72918;PMS7003;68407;55.694;26.994;2024-03-02T23:40:11;25.2;21.4;14.8
72918;PMS7003;68407;55.694;26.994;2024-03-02T23:45:11;27.8;23.8;15.8
72918;PMS7003;68407;55.694;26.994;2024-03-02T23:49:49;27.8;23.8;15.8
72918;PMS7003;68407;55.694;26.994;2024-03-02T23:55:11;27.2;22.8;15
